sensor_id;sensor_type;location;lat;lon;timestamp;P1;durP1;ratioP1;P2;durP2;ratioP2
69837;SDS011;57135;51.992;4.476;2022-07-25T00:01:20;7.87;;;7.87;;
69837;SDS011;57135;51.992;4.476;2022-07-25T00:03:46;7.70;;;7.70;;
69837;SDS011;57135;51.992;4.476;2022-07-25T00:06:11;7.52;;;7.52;;
69837;SDS011;57135;51.992;4.476;2022-07-25T00:08:37;7.15;;;7.15;;
69837;SDS011;57135;51.992;4.476;2022-07-25T00:11:02;7.67;;;7.67;;
69837;SDS011;57135;51.992;4.476;2022-07-25T00:13:28;7.82;;;7.82;;
69837;SDS011;57135;51.992;4.476;2022-07-25T00:15:53;7.77;;;7.77;;
69837;SDS011;57135;51.992;4.476;2022-07-25T00:18:19;7.27;;;7.27;;
69837;SDS011;57135;51.992;4.476;2022-07-25T00:20:44;7.70;;;7.70;;
69837;SDS011;57135;51.992;4.476;2022-07-25T00:23:10;8.12;;;8.12;;
69837;SDS011;57135;51.992;4.476;2022-07-25T00:25:36;7.75;;;7.75;;
69837;SDS011;57135;51.992;4.476;2022-07-25T00:28:01;7.34;;;7.34;;
69837;SDS011;57135;51.992;4.476;2022-07-25T00:30:27;7.89;;;7.89;;
69837;SDS011;57135;51.992;4.476;2022-07-25T00:32:52;8.18;;;8.18;;
69837;SDS011;57135;51.992;4.476;2022-07-25T00:35:18;8.27;;;8.27;;
69837;SDS011;57135;51.992;4.476;2022-07-25T00:37:43;7.55;;;7.55;;
69837;SDS011;57135;51.992;4.476;2022-07-25T00:40:09;7.47;;;7.47;;
69837;SDS011;57135;51.992;4.476;2022-07-25T00:42:35;7.97;;;7.97;;
69837;SDS011;57135;51.992;4.476;2022-07-25T00:45:00;7.97;;;7.97;;
69837;SDS011;57135;51.992;4.476;2022-07-25T00:47:26;7.78;;;7.78;;
69837;SDS011;57135;51.992;4.476;2022-07-25T00:49:51;7.98;;;7.97;;
69837;SDS011;57135;51.992;4.476;2022-07-25T00:52:17;8.29;;;8.12;;
69837;SDS011;57135;51.992;4.476;2022-07-25T00:54:42;8.14;;;8.14;;
69837;SDS011;57135;51.992;4.476;2022-07-25T00:57:08;8.14;;;8.14;;
69837;SDS011;57135;51.992;4.476;2022-07-25T00:59:33;7.96;;;7.96;;
69837;SDS011;57135;51.992;4.476;2022-07-25T01:01:59;8.17;;;8.17;;
69837;SDS011;57135;51.992;4.476;2022-07-25T01:04:24;7.68;;;7.68;;
69837;SDS011;57135;51.992;4.476;2022-07-25T01:06:50;7.89;;;7.89;;
69837;SDS011;57135;51.992;4.476;2022-07-25T01:09:16;7.35;;;7.35;;
69837;SDS011;57135;51.992;4.476;2022-07-25T01:11:42;7.84;;;7.84;;
69837;SDS011;57135;51.992;4.476;2022-07-25T01:14:08;7.91;;;7.91;;
69837;SDS011;57135;51.992;4.476;2022-07-25T01:16:33;8.08;;;8.08;;
69837;SDS011;57135;51.992;4.476;2022-07-25T01:18:59;7.88;;;7.88;;
69837;SDS011;57135;51.992;4.476;2022-07-25T01:21:24;8.35;;;8.35;;
69837;SDS011;57135;51.992;4.476;2022-07-25T01:23:51;8.19;;;8.18;;
69837;SDS011;57135;51.992;4.476;2022-07-25T01:26:16;8.11;;;8.07;;
69837;SDS011;57135;51.992;4.476;2022-07-25T01:28:42;8.35;;;8.35;;
69837;SDS011;57135;51.992;4.476;2022-07-25T01:31:07;8.17;;;8.17;;
69837;SDS011;57135;51.992;4.476;2022-07-25T01:33:33;8.06;;;8.06;;
69837;SDS011;57135;51.992;4.476;2022-07-25T01:35:58;7.92;;;7.92;;
69837;SDS011;57135;51.992;4.476;2022-07-25T01:38:24;8.26;;;8.26;;
69837;SDS011;57135;51.992;4.476;2022-07-25T01:40:49;8.03;;;8.03;;
69837;SDS011;57135;51.992;4.476;2022-07-25T01:43:15;7.95;;;7.95;;
69837;SDS011;57135;51.992;4.476;2022-07-25T01:45:40;7.97;;;7.97;;
69837;SDS011;57135;51.992;4.476;2022-07-25T01:48:06;7.84;;;7.84;;
69837;SDS011;57135;51.992;4.476;2022-07-25T01:50:31;8.03;;;8.03;;
69837;SDS011;57135;51.992;4.476;2022-07-25T01:52:57;8.43;;;8.43;;
69837;SDS011;57135;51.992;4.476;2022-07-25T01:55:22;8.39;;;8.39;;
69837;SDS011;57135;51.992;4.476;2022-07-25T01:57:47;8.86;;;8.86;;
69837;SDS011;57135;51.992;4.476;2022-07-25T02:00:13;8.82;;;8.82;;
69837;SDS011;57135;51.992;4.476;2022-07-25T02:02:40;8.45;;;8.45;;
69837;SDS011;57135;51.992;4.476;2022-07-25T02:05:09;8.96;;;8.95;;
69837;SDS011;57135;51.992;4.476;2022-07-25T02:07:36;8.90;;;8.90;;
69837;SDS011;57135;51.992;4.476;2022-07-25T02:10:03;8.69;;;8.69;;
69837;SDS011;57135;51.992;4.476;2022-07-25T02:12:29;8.34;;;8.34;;
69837;SDS011;57135;51.992;4.476;2022-07-25T02:14:55;8.20;;;8.20;;
69837;SDS011;57135;51.992;4.476;2022-07-25T02:17:20;7.88;;;7.88;;
69837;SDS011;57135;51.992;4.476;2022-07-25T02:19:46;7.69;;;7.69;;
69837;SDS011;57135;51.992;4.476;2022-07-25T02:22:11;8.22;;;8.22;;
69837;SDS011;57135;51.992;4.476;2022-07-25T02:24:37;8.43;;;8.43;;
69837;SDS011;57135;51.992;4.476;2022-07-25T02:27:03;7.95;;;7.95;;
69837;SDS011;57135;51.992;4.476;2022-07-25T02:29:29;8.05;;;8.05;;
69837;SDS011;57135;51.992;4.476;2022-07-25T02:31:54;7.98;;;7.98;;
69837;SDS011;57135;51.992;4.476;2022-07-25T02:34:20;8.02;;;8.02;;
69837;SDS011;57135;51.992;4.476;2022-07-25T02:36:45;8.32;;;8.32;;
69837;SDS011;57135;51.992;4.476;2022-07-25T02:39:11;8.79;;;8.79;;
69837;SDS011;57135;51.992;4.476;2022-07-25T02:41:37;8.76;;;8.76;;
69837;SDS011;57135;51.992;4.476;2022-07-25T02:44:02;8.38;;;8.38;;
69837;SDS011;57135;51.992;4.476;2022-07-25T02:46:28;8.33;;;8.33;;
69837;SDS011;57135;51.992;4.476;2022-07-25T02:48:54;7.81;;;7.81;;
69837;SDS011;57135;51.992;4.476;2022-07-25T02:51:19;7.71;;;7.71;;
69837;SDS011;57135;51.992;4.476;2022-07-25T02:53:45;8.33;;;8.33;;
69837;SDS011;57135;51.992;4.476;2022-07-25T02:56:10;8.65;;;8.65;;
69837;SDS011;57135;51.992;4.476;2022-07-25T02:58:36;8.93;;;8.93;;
69837;SDS011;57135;51.992;4.476;2022-07-25T03:01:01;8.64;;;8.64;;
69837;SDS011;57135;51.992;4.476;2022-07-25T03:03:27;8.57;;;8.57;;
69837;SDS011;57135;51.992;4.476;2022-07-25T03:05:52;8.41;;;8.41;;
69837;SDS011;57135;51.992;4.476;2022-07-25T03:08:17;8.73;;;8.73;;
69837;SDS011;57135;51.992;4.476;2022-07-25T03:10:43;9.00;;;9.00;;
69837;SDS011;57135;51.992;4.476;2022-07-25T03:13:09;8.86;;;8.86;;
69837;SDS011;57135;51.992;4.476;2022-07-25T03:15:34;9.51;;;9.51;;
69837;SDS011;57135;51.992;4.476;2022-07-25T03:17:59;9.64;;;9.64;;
69837;SDS011;57135;51.992;4.476;2022-07-25T03:20:25;10.03;;;10.03;;
69837;SDS011;57135;51.992;4.476;2022-07-25T03:22:50;10.76;;;10.70;;
69837;SDS011;57135;51.992;4.476;2022-07-25T03:25:16;10.96;;;10.95;;
69837;SDS011;57135;51.992;4.476;2022-07-25T03:27:41;11.35;;;11.35;;
69837;SDS011;57135;51.992;4.476;2022-07-25T03:30:07;11.01;;;11.01;;
69837;SDS011;57135;51.992;4.476;2022-07-25T03:32:33;10.77;;;10.76;;
69837;SDS011;57135;51.992;4.476;2022-07-25T03:34:58;10.36;;;10.36;;
69837;SDS011;57135;51.992;4.476;2022-07-25T03:37:24;9.55;;;9.55;;
69837;SDS011;57135;51.992;4.476;2022-07-25T03:39:49;9.40;;;9.40;;
69837;SDS011;57135;51.992;4.476;2022-07-25T03:42:15;9.00;;;9.00;;
69837;SDS011;57135;51.992;4.476;2022-07-25T03:44:40;8.16;;;8.16;;
69837;SDS011;57135;51.992;4.476;2022-07-25T03:47:06;7.82;;;7.82;;
69837;SDS011;57135;51.992;4.476;2022-07-25T03:49:31;7.73;;;7.73;;
69837;SDS011;57135;51.992;4.476;2022-07-25T03:51:57;8.06;;;8.06;;
69837;SDS011;57135;51.992;4.476;2022-07-25T03:54:23;7.53;;;7.53;;
69837;SDS011;57135;51.992;4.476;2022-07-25T03:56:49;7.98;;;7.97;;
69837;SDS011;57135;51.992;4.476;2022-07-25T03:59:16;7.80;;;7.80;;
69837;SDS011;57135;51.992;4.476;2022-07-25T04:01:43;7.60;;;7.60;;
69837;SDS011;57135;51.992;4.476;2022-07-25T04:04:10;7.60;;;7.59;;
69837;SDS011;57135;51.992;4.476;2022-07-25T04:06:36;8.07;;;8.07;;
69837;SDS011;57135;51.992;4.476;2022-07-25T04:09:02;8.22;;;8.22;;
69837;SDS011;57135;51.992;4.476;2022-07-25T04:11:28;7.82;;;7.82;;
69837;SDS011;57135;51.992;4.476;2022-07-25T04:13:55;7.79;;;7.79;;
69837;SDS011;57135;51.992;4.476;2022-07-25T04:16:21;7.51;;;7.51;;
69837;SDS011;57135;51.992;4.476;2022-07-25T04:18:47;7.32;;;7.32;;
69837;SDS011;57135;51.992;4.476;2022-07-25T04:21:13;7.62;;;7.62;;
69837;SDS011;57135;51.992;4.476;2022-07-25T04:23:38;7.41;;;7.41;;
69837;SDS011;57135;51.992;4.476;2022-07-25T04:26:03;7.33;;;7.33;;
69837;SDS011;57135;51.992;4.476;2022-07-25T04:28:29;7.37;;;7.37;;
69837;SDS011;57135;51.992;4.476;2022-07-25T04:30:54;7.09;;;7.09;;
69837;SDS011;57135;51.992;4.476;2022-07-25T04:33:21;7.07;;;7.06;;
69837;SDS011;57135;51.992;4.476;2022-07-25T04:35:46;7.00;;;7.00;;
69837;SDS011;57135;51.992;4.476;2022-07-25T04:38:12;6.65;;;6.65;;
69837;SDS011;57135;51.992;4.476;2022-07-25T04:40:37;6.24;;;6.24;;
69837;SDS011;57135;51.992;4.476;2022-07-25T04:43:03;6.04;;;6.04;;
69837;SDS011;57135;51.992;4.476;2022-07-25T04:45:30;5.80;;;5.80;;
69837;SDS011;57135;51.992;4.476;2022-07-25T04:47:56;5.24;;;5.21;;
69837;SDS011;57135;51.992;4.476;2022-07-25T04:50:22;5.62;;;5.48;;
69837;SDS011;57135;51.992;4.476;2022-07-25T04:52:48;4.88;;;4.87;;
69837;SDS011;57135;51.992;4.476;2022-07-25T04:55:13;5.09;;;5.09;;
69837;SDS011;57135;51.992;4.476;2022-07-25T04:57:38;4.66;;;4.66;;
69837;SDS011;57135;51.992;4.476;2022-07-25T05:00:05;4.62;;;4.62;;
69837;SDS011;57135;51.992;4.476;2022-07-25T05:02:32;4.52;;;4.52;;
69837;SDS011;57135;51.992;4.476;2022-07-25T05:04:58;4.13;;;4.13;;
69837;SDS011;57135;51.992;4.476;2022-07-25T05:07:24;4.05;;;4.05;;
69837;SDS011;57135;51.992;4.476;2022-07-25T05:09:49;3.92;;;3.92;;
69837;SDS011;57135;51.992;4.476;2022-07-25T05:12:15;3.87;;;3.87;;
69837;SDS011;57135;51.992;4.476;2022-07-25T05:14:40;3.49;;;3.49;;
69837;SDS011;57135;51.992;4.476;2022-07-25T05:17:06;3.46;;;3.46;;
69837;SDS011;57135;51.992;4.476;2022-07-25T05:19:31;3.54;;;3.54;;
69837;SDS011;57135;51.992;4.476;2022-07-25T05:21:56;3.30;;;3.30;;
69837;SDS011;57135;51.992;4.476;2022-07-25T05:24:22;3.37;;;3.37;;
69837;SDS011;57135;51.992;4.476;2022-07-25T05:26:48;3.22;;;3.22;;
69837;SDS011;57135;51.992;4.476;2022-07-25T05:29:14;3.00;;;3.00;;
69837;SDS011;57135;51.992;4.476;2022-07-25T05:31:39;3.31;;;3.31;;
69837;SDS011;57135;51.992;4.476;2022-07-25T05:34:05;3.37;;;3.36;;
69837;SDS011;57135;51.992;4.476;2022-07-25T05:36:31;3.55;;;3.53;;
69837;SDS011;57135;51.992;4.476;2022-07-25T05:38:57;3.09;;;3.08;;
69837;SDS011;57135;51.992;4.476;2022-07-25T05:41:22;2.96;;;2.96;;
69837;SDS011;57135;51.992;4.476;2022-07-25T05:43:48;2.87;;;2.87;;
69837;SDS011;57135;51.992;4.476;2022-07-25T05:46:13;2.85;;;2.84;;
69837;SDS011;57135;51.992;4.476;2022-07-25T05:48:40;2.59;;;2.58;;
69837;SDS011;57135;51.992;4.476;2022-07-25T05:51:05;2.68;;;2.67;;
69837;SDS011;57135;51.992;4.476;2022-07-25T05:53:31;2.98;;;2.98;;
69837;SDS011;57135;51.992;4.476;2022-07-25T05:55:56;2.82;;;2.82;;
69837;SDS011;57135;51.992;4.476;2022-07-25T05:58:22;2.63;;;2.62;;
69837;SDS011;57135;51.992;4.476;2022-07-25T06:00:47;2.75;;;2.73;;
69837;SDS011;57135;51.992;4.476;2022-07-25T06:03:15;2.73;;;2.69;;
69837;SDS011;57135;51.992;4.476;2022-07-25T06:05:42;2.78;;;2.77;;
69837;SDS011;57135;51.992;4.476;2022-07-25T06:08:07;2.81;;;2.75;;
69837;SDS011;57135;51.992;4.476;2022-07-25T06:10:33;2.54;;;2.54;;
69837;SDS011;57135;51.992;4.476;2022-07-25T06:12:58;3.03;;;2.93;;
69837;SDS011;57135;51.992;4.476;2022-07-25T06:15:24;3.07;;;2.92;;
69837;SDS011;57135;51.992;4.476;2022-07-25T06:17:49;3.00;;;2.87;;
69837;SDS011;57135;51.992;4.476;2022-07-25T06:20:14;2.97;;;2.81;;
69837;SDS011;57135;51.992;4.476;2022-07-25T06:22:40;2.61;;;2.57;;
69837;SDS011;57135;51.992;4.476;2022-07-25T06:25:05;2.67;;;2.56;;
69837;SDS011;57135;51.992;4.476;2022-07-25T06:27:31;3.40;;;3.19;;
69837;SDS011;57135;51.992;4.476;2022-07-25T06:29:57;3.15;;;2.86;;
69837;SDS011;57135;51.992;4.476;2022-07-25T06:32:22;3.23;;;2.95;;
69837;SDS011;57135;51.992;4.476;2022-07-25T06:34:48;3.25;;;2.96;;
69837;SDS011;57135;51.992;4.476;2022-07-25T06:37:14;3.06;;;2.86;;
69837;SDS011;57135;51.992;4.476;2022-07-25T06:39:40;3.04;;;2.83;;
69837;SDS011;57135;51.992;4.476;2022-07-25T06:42:05;3.37;;;3.09;;
69837;SDS011;57135;51.992;4.476;2022-07-25T06:44:31;3.23;;;2.97;;
69837;SDS011;57135;51.992;4.476;2022-07-25T06:46:58;3.06;;;2.87;;
69837;SDS011;57135;51.992;4.476;2022-07-25T06:49:24;3.05;;;2.83;;
69837;SDS011;57135;51.992;4.476;2022-07-25T06:51:50;3.33;;;3.10;;
69837;SDS011;57135;51.992;4.476;2022-07-25T06:54:15;2.93;;;2.72;;
69837;SDS011;57135;51.992;4.476;2022-07-25T06:56:42;3.04;;;2.83;;
69837;SDS011;57135;51.992;4.476;2022-07-25T06:59:08;2.77;;;2.59;;
69837;SDS011;57135;51.992;4.476;2022-07-25T07:01:33;3.11;;;2.87;;
69837;SDS011;57135;51.992;4.476;2022-07-25T07:03:59;2.99;;;2.71;;
69837;SDS011;57135;51.992;4.476;2022-07-25T07:06:24;3.38;;;3.04;;
69837;SDS011;57135;51.992;4.476;2022-07-25T07:08:50;3.40;;;2.97;;
69837;SDS011;57135;51.992;4.476;2022-07-25T07:11:15;3.21;;;2.86;;
69837;SDS011;57135;51.992;4.476;2022-07-25T07:13:41;2.94;;;2.63;;
69837;SDS011;57135;51.992;4.476;2022-07-25T07:16:07;2.98;;;2.67;;
69837;SDS011;57135;51.992;4.476;2022-07-25T07:18:33;3.41;;;3.03;;
69837;SDS011;57135;51.992;4.476;2022-07-25T07:20:58;3.36;;;2.96;;
69837;SDS011;57135;51.992;4.476;2022-07-25T07:23:24;3.21;;;2.78;;
69837;SDS011;57135;51.992;4.476;2022-07-25T07:25:49;3.31;;;2.90;;
69837;SDS011;57135;51.992;4.476;2022-07-25T07:28:14;3.01;;;2.74;;
69837;SDS011;57135;51.992;4.476;2022-07-25T07:30:40;2.74;;;2.53;;
69837;SDS011;57135;51.992;4.476;2022-07-25T07:33:06;2.99;;;2.76;;
69837;SDS011;57135;51.992;4.476;2022-07-25T07:35:31;3.01;;;2.78;;
69837;SDS011;57135;51.992;4.476;2022-07-25T07:37:56;3.05;;;2.80;;
69837;SDS011;57135;51.992;4.476;2022-07-25T07:40:22;2.98;;;2.75;;
69837;SDS011;57135;51.992;4.476;2022-07-25T07:42:49;3.06;;;2.85;;
69837;SDS011;57135;51.992;4.476;2022-07-25T07:45:16;2.75;;;2.55;;
69837;SDS011;57135;51.992;4.476;2022-07-25T07:47:46;3.12;;;2.93;;
69837;SDS011;57135;51.992;4.476;2022-07-25T07:50:14;2.79;;;2.66;;
69837;SDS011;57135;51.992;4.476;2022-07-25T07:52:41;2.90;;;2.76;;
69837;SDS011;57135;51.992;4.476;2022-07-25T07:55:07;2.81;;;2.66;;
69837;SDS011;57135;51.992;4.476;2022-07-25T07:57:51;2.95;;;2.79;;
69837;SDS011;57135;51.992;4.476;2022-07-25T08:00:17;2.54;;;2.53;;
69837;SDS011;57135;51.992;4.476;2022-07-25T08:02:45;2.64;;;2.55;;
69837;SDS011;57135;51.992;4.476;2022-07-25T08:05:18;2.87;;;2.67;;
69837;SDS011;57135;51.992;4.476;2022-07-25T08:07:45;2.91;;;2.71;;
69837;SDS011;57135;51.992;4.476;2022-07-25T08:10:11;2.75;;;2.64;;
69837;SDS011;57135;51.992;4.476;2022-07-25T08:12:39;3.01;;;2.98;;
69837;SDS011;57135;51.992;4.476;2022-07-25T08:15:06;2.90;;;2.81;;
69837;SDS011;57135;51.992;4.476;2022-07-25T08:17:32;2.72;;;2.67;;
69837;SDS011;57135;51.992;4.476;2022-07-25T08:19:57;2.73;;;2.73;;
69837;SDS011;57135;51.992;4.476;2022-07-25T08:22:23;2.75;;;2.68;;
69837;SDS011;57135;51.992;4.476;2022-07-25T08:24:48;3.05;;;2.87;;
69837;SDS011;57135;51.992;4.476;2022-07-25T08:27:14;2.90;;;2.70;;
69837;SDS011;57135;51.992;4.476;2022-07-25T08:29:39;2.94;;;2.74;;
69837;SDS011;57135;51.992;4.476;2022-07-25T08:32:05;2.88;;;2.67;;
69837;SDS011;57135;51.992;4.476;2022-07-25T08:34:30;2.79;;;2.61;;
69837;SDS011;57135;51.992;4.476;2022-07-25T08:36:56;2.83;;;2.57;;
69837;SDS011;57135;51.992;4.476;2022-07-25T08:39:21;2.87;;;2.62;;
69837;SDS011;57135;51.992;4.476;2022-07-25T08:41:47;2.70;;;2.51;;
69837;SDS011;57135;51.992;4.476;2022-07-25T08:44:14;2.81;;;2.60;;
69837;SDS011;57135;51.992;4.476;2022-07-25T08:46:41;2.42;;;2.25;;
69837;SDS011;57135;51.992;4.476;2022-07-25T08:49:07;2.35;;;2.22;;
69837;SDS011;57135;51.992;4.476;2022-07-25T08:51:34;2.65;;;2.48;;
69837;SDS011;57135;51.992;4.476;2022-07-25T08:54:01;2.56;;;2.35;;
69837;SDS011;57135;51.992;4.476;2022-07-25T08:56:27;2.51;;;2.33;;
69837;SDS011;57135;51.992;4.476;2022-07-25T08:58:52;2.39;;;2.22;;
69837;SDS011;57135;51.992;4.476;2022-07-25T09:01:20;2.98;;;2.81;;
69837;SDS011;57135;51.992;4.476;2022-07-25T09:03:46;2.91;;;2.72;;
69837;SDS011;57135;51.992;4.476;2022-07-25T09:06:15;2.92;;;2.70;;
69837;SDS011;57135;51.992;4.476;2022-07-25T09:08:56;3.09;;;2.86;;
69837;SDS011;57135;51.992;4.476;2022-07-25T09:13:56;3.98;;;3.51;;
69837;SDS011;57135;51.992;4.476;2022-07-25T09:16:29;3.93;;;3.52;;
69837;SDS011;57135;51.992;4.476;2022-07-25T09:22:06;3.54;;;3.25;;
69837;SDS011;57135;51.992;4.476;2022-07-25T09:24:32;3.70;;;3.37;;
69837;SDS011;57135;51.992;4.476;2022-07-25T09:27:00;3.75;;;3.39;;
69837;SDS011;57135;51.992;4.476;2022-07-25T09:29:33;3.92;;;3.54;;
69837;SDS011;57135;51.992;4.476;2022-07-25T09:32:01;3.87;;;3.49;;
69837;SDS011;57135;51.992;4.476;2022-07-25T09:34:39;3.82;;;3.49;;
69837;SDS011;57135;51.992;4.476;2022-07-25T09:37:07;4.14;;;3.77;;
69837;SDS011;57135;51.992;4.476;2022-07-25T09:39:43;4.18;;;3.81;;
69837;SDS011;57135;51.992;4.476;2022-07-25T09:44:39;3.93;;;3.58;;
69837;SDS011;57135;51.992;4.476;2022-07-25T09:47:08;4.34;;;3.94;;
69837;SDS011;57135;51.992;4.476;2022-07-25T09:49:42;4.04;;;3.79;;
69837;SDS011;57135;51.992;4.476;2022-07-25T09:52:09;4.08;;;3.84;;
69837;SDS011;57135;51.992;4.476;2022-07-25T09:54:36;3.59;;;3.37;;
69837;SDS011;57135;51.992;4.476;2022-07-25T09:57:04;4.05;;;3.75;;
69837;SDS011;57135;51.992;4.476;2022-07-25T09:59:31;4.24;;;3.93;;
69837;SDS011;57135;51.992;4.476;2022-07-25T10:02:08;4.20;;;3.80;;
69837;SDS011;57135;51.992;4.476;2022-07-25T10:07:38;4.21;;;3.85;;
69837;SDS011;57135;51.992;4.476;2022-07-25T10:10:28;4.65;;;4.23;;
69837;SDS011;57135;51.992;4.476;2022-07-25T10:12:59;4.15;;;3.80;;
69837;SDS011;57135;51.992;4.476;2022-07-25T10:15:37;4.50;;;4.05;;
69837;SDS011;57135;51.992;4.476;2022-07-25T10:18:07;5.00;;;4.44;;
69837;SDS011;57135;51.992;4.476;2022-07-25T10:20:33;4.88;;;4.41;;
69837;SDS011;57135;51.992;4.476;2022-07-25T10:22:59;4.67;;;4.31;;
69837;SDS011;57135;51.992;4.476;2022-07-25T10:25:25;4.64;;;4.23;;
69837;SDS011;57135;51.992;4.476;2022-07-25T10:27:52;5.23;;;4.64;;
69837;SDS011;57135;51.992;4.476;2022-07-25T10:30:33;5.34;;;4.72;;
69837;SDS011;57135;51.992;4.476;2022-07-25T10:33:09;4.40;;;3.90;;
69837;SDS011;57135;51.992;4.476;2022-07-25T10:35:39;4.74;;;4.25;;
69837;SDS011;57135;51.992;4.476;2022-07-25T10:38:05;4.43;;;4.06;;
69837;SDS011;57135;51.992;4.476;2022-07-25T10:45:36;5.06;;;4.57;;
69837;SDS011;57135;51.992;4.476;2022-07-25T10:48:09;5.15;;;4.69;;
69837;SDS011;57135;51.992;4.476;2022-07-25T10:50:51;5.39;;;4.83;;
69837;SDS011;57135;51.992;4.476;2022-07-25T10:53:37;5.41;;;4.77;;
69837;SDS011;57135;51.992;4.476;2022-07-25T11:01:09;5.06;;;4.41;;
69837;SDS011;57135;51.992;4.476;2022-07-25T11:03:35;4.92;;;4.36;;
69837;SDS011;57135;51.992;4.476;2022-07-25T11:06:01;5.07;;;4.53;;
69837;SDS011;57135;51.992;4.476;2022-07-25T11:08:32;5.16;;;4.55;;
69837;SDS011;57135;51.992;4.476;2022-07-25T11:10:59;5.60;;;5.03;;
69837;SDS011;57135;51.992;4.476;2022-07-25T11:13:24;4.71;;;4.32;;
69837;SDS011;57135;51.992;4.476;2022-07-25T11:15:50;4.65;;;4.24;;
69837;SDS011;57135;51.992;4.476;2022-07-25T11:18:15;4.80;;;4.26;;
69837;SDS011;57135;51.992;4.476;2022-07-25T11:20:42;3.99;;;3.50;;
69837;SDS011;57135;51.992;4.476;2022-07-25T11:23:08;4.06;;;3.55;;
69837;SDS011;57135;51.992;4.476;2022-07-25T11:25:33;3.86;;;3.45;;
69837;SDS011;57135;51.992;4.476;2022-07-25T11:27:59;3.59;;;3.21;;
69837;SDS011;57135;51.992;4.476;2022-07-25T11:30:25;3.81;;;3.38;;
69837;SDS011;57135;51.992;4.476;2022-07-25T11:32:55;3.43;;;3.08;;
69837;SDS011;57135;51.992;4.476;2022-07-25T11:35:23;3.84;;;3.46;;
69837;SDS011;57135;51.992;4.476;2022-07-25T11:37:51;4.24;;;3.69;;
69837;SDS011;57135;51.992;4.476;2022-07-25T11:40:17;4.50;;;3.86;;
69837;SDS011;57135;51.992;4.476;2022-07-25T11:42:45;3.87;;;3.38;;
69837;SDS011;57135;51.992;4.476;2022-07-25T11:45:16;3.45;;;2.99;;
69837;SDS011;57135;51.992;4.476;2022-07-25T11:47:43;3.64;;;3.10;;
69837;SDS011;57135;51.992;4.476;2022-07-25T11:50:08;3.86;;;3.35;;
69837;SDS011;57135;51.992;4.476;2022-07-25T11:52:39;3.81;;;3.31;;
69837;SDS011;57135;51.992;4.476;2022-07-25T11:55:11;3.84;;;3.37;;
69837;SDS011;57135;51.992;4.476;2022-07-25T11:57:42;4.01;;;3.40;;
69837;SDS011;57135;51.992;4.476;2022-07-25T12:00:10;4.05;;;3.38;;
69837;SDS011;57135;51.992;4.476;2022-07-25T12:02:43;3.28;;;2.82;;
69837;SDS011;57135;51.992;4.476;2022-07-25T12:05:09;3.49;;;3.04;;
69837;SDS011;57135;51.992;4.476;2022-07-25T12:10:09;3.12;;;2.72;;
69837;SDS011;57135;51.992;4.476;2022-07-25T12:13:01;3.10;;;2.73;;
69837;SDS011;57135;51.992;4.476;2022-07-25T12:15:29;3.31;;;2.92;;
69837;SDS011;57135;51.992;4.476;2022-07-25T12:17:58;4.15;;;3.56;;
69837;SDS011;57135;51.992;4.476;2022-07-25T12:20:26;4.41;;;3.69;;
69837;SDS011;57135;51.992;4.476;2022-07-25T12:22:54;4.23;;;3.58;;
69837;SDS011;57135;51.992;4.476;2022-07-25T12:25:21;4.13;;;3.61;;
69837;SDS011;57135;51.992;4.476;2022-07-25T12:27:47;3.75;;;3.21;;
69837;SDS011;57135;51.992;4.476;2022-07-25T12:30:13;3.73;;;3.16;;
69837;SDS011;57135;51.992;4.476;2022-07-25T12:32:39;3.39;;;2.82;;
69837;SDS011;57135;51.992;4.476;2022-07-25T12:35:06;3.46;;;2.88;;
69837;SDS011;57135;51.992;4.476;2022-07-25T12:37:33;4.04;;;3.33;;
69837;SDS011;57135;51.992;4.476;2022-07-25T12:39:58;4.46;;;3.63;;
69837;SDS011;57135;51.992;4.476;2022-07-25T12:42:24;4.88;;;3.80;;
69837;SDS011;57135;51.992;4.476;2022-07-25T12:44:51;5.14;;;3.99;;
69837;SDS011;57135;51.992;4.476;2022-07-25T12:47:17;4.93;;;3.89;;
69837;SDS011;57135;51.992;4.476;2022-07-25T12:49:42;4.93;;;3.89;;
69837;SDS011;57135;51.992;4.476;2022-07-25T12:52:08;4.50;;;3.60;;
69837;SDS011;57135;51.992;4.476;2022-07-25T12:54:34;4.05;;;3.37;;
69837;SDS011;57135;51.992;4.476;2022-07-25T12:56:59;4.22;;;3.45;;
69837;SDS011;57135;51.992;4.476;2022-07-25T12:59:25;4.36;;;3.46;;
69837;SDS011;57135;51.992;4.476;2022-07-25T13:01:50;4.32;;;3.42;;
69837;SDS011;57135;51.992;4.476;2022-07-25T13:04:16;3.71;;;3.01;;
69837;SDS011;57135;51.992;4.476;2022-07-25T13:06:41;3.79;;;3.04;;
69837;SDS011;57135;51.992;4.476;2022-07-25T13:09:07;3.61;;;2.97;;
69837;SDS011;57135;51.992;4.476;2022-07-25T13:11:32;3.76;;;3.11;;
69837;SDS011;57135;51.992;4.476;2022-07-25T13:13:57;3.83;;;3.14;;
69837;SDS011;57135;51.992;4.476;2022-07-25T13:16:23;4.15;;;3.36;;
69837;SDS011;57135;51.992;4.476;2022-07-25T13:18:49;4.68;;;3.74;;
69837;SDS011;57135;51.992;4.476;2022-07-25T13:21:14;5.19;;;3.95;;
69837;SDS011;57135;51.992;4.476;2022-07-25T13:23:40;4.91;;;3.64;;
69837;SDS011;57135;51.992;4.476;2022-07-25T13:26:06;4.44;;;3.38;;
69837;SDS011;57135;51.992;4.476;2022-07-25T13:28:31;4.25;;;3.23;;
69837;SDS011;57135;51.992;4.476;2022-07-25T13:30:57;3.56;;;2.80;;
69837;SDS011;57135;51.992;4.476;2022-07-25T13:33:22;3.47;;;2.71;;
69837;SDS011;57135;51.992;4.476;2022-07-25T13:35:48;3.42;;;2.64;;
69837;SDS011;57135;51.992;4.476;2022-07-25T13:38:13;3.77;;;2.91;;
69837;SDS011;57135;51.992;4.476;2022-07-25T13:40:39;3.90;;;3.06;;
69837;SDS011;57135;51.992;4.476;2022-07-25T13:43:06;3.57;;;2.81;;
69837;SDS011;57135;51.992;4.476;2022-07-25T13:45:35;3.93;;;3.02;;
69837;SDS011;57135;51.992;4.476;2022-07-25T13:48:01;3.90;;;3.00;;
69837;SDS011;57135;51.992;4.476;2022-07-25T13:50:27;3.99;;;3.04;;
69837;SDS011;57135;51.992;4.476;2022-07-25T13:52:52;3.44;;;2.61;;
69837;SDS011;57135;51.992;4.476;2022-07-25T13:55:21;3.55;;;2.65;;
69837;SDS011;57135;51.992;4.476;2022-07-25T13:57:47;2.93;;;2.18;;
69837;SDS011;57135;51.992;4.476;2022-07-25T14:00:12;3.02;;;2.24;;
69837;SDS011;57135;51.992;4.476;2022-07-25T14:02:38;3.04;;;2.26;;
69837;SDS011;57135;51.992;4.476;2022-07-25T14:05:04;2.93;;;2.12;;
69837;SDS011;57135;51.992;4.476;2022-07-25T14:07:29;2.73;;;1.98;;
69837;SDS011;57135;51.992;4.476;2022-07-25T14:09:55;3.04;;;2.19;;
69837;SDS011;57135;51.992;4.476;2022-07-25T14:12:21;3.42;;;2.45;;
69837;SDS011;57135;51.992;4.476;2022-07-25T14:14:46;3.19;;;2.30;;
69837;SDS011;57135;51.992;4.476;2022-07-25T14:17:12;2.91;;;2.15;;
69837;SDS011;57135;51.992;4.476;2022-07-25T14:19:37;2.80;;;2.08;;
69837;SDS011;57135;51.992;4.476;2022-07-25T14:22:03;2.91;;;2.15;;
69837;SDS011;57135;51.992;4.476;2022-07-25T14:24:29;3.19;;;2.33;;
69837;SDS011;57135;51.992;4.476;2022-07-25T14:26:54;3.28;;;2.39;;
69837;SDS011;57135;51.992;4.476;2022-07-25T14:29:20;4.09;;;2.91;;
69837;SDS011;57135;51.992;4.476;2022-07-25T14:31:46;4.10;;;2.90;;
69837;SDS011;57135;51.992;4.476;2022-07-25T14:34:12;3.33;;;2.34;;
69837;SDS011;57135;51.992;4.476;2022-07-25T14:36:39;3.28;;;2.30;;
69837;SDS011;57135;51.992;4.476;2022-07-25T14:39:05;3.02;;;2.09;;
69837;SDS011;57135;51.992;4.476;2022-07-25T14:41:31;3.38;;;2.33;;
69837;SDS011;57135;51.992;4.476;2022-07-25T14:43:57;2.97;;;2.00;;
69837;SDS011;57135;51.992;4.476;2022-07-25T14:46:23;3.76;;;2.51;;
69837;SDS011;57135;51.992;4.476;2022-07-25T14:48:49;4.05;;;2.69;;
69837;SDS011;57135;51.992;4.476;2022-07-25T14:51:16;4.46;;;2.90;;
69837;SDS011;57135;51.992;4.476;2022-07-25T14:53:42;3.82;;;2.44;;
69837;SDS011;57135;51.992;4.476;2022-07-25T14:56:08;3.87;;;2.49;;
69837;SDS011;57135;51.992;4.476;2022-07-25T14:58:33;3.85;;;2.46;;
69837;SDS011;57135;51.992;4.476;2022-07-25T15:00:59;4.15;;;2.65;;
69837;SDS011;57135;51.992;4.476;2022-07-25T15:03:25;4.51;;;2.90;;
69837;SDS011;57135;51.992;4.476;2022-07-25T15:05:50;4.35;;;2.77;;
69837;SDS011;57135;51.992;4.476;2022-07-25T15:08:16;4.92;;;3.14;;